Time;durP1;ratioP1;P1;durP2;ratioP2;P2;SDS_P1;SDS_P2;PMS_P1;PMS_P2;Temp;Humidity;BMP_temperature;BMP_pressure;BME280_temperature;BME280_humidity;BME280_pressure;Samples;Min_cycle;Max_cycle;Signal;HPM_P1;HPM_P2
2024/01/06 00:00:35;;;;;;;9.35;4.75;;;0.40;99.90;;;;;;5072972;28;20163;-75
2024/01/06 00:03:00;;;;;;;5.90;5.25;;;0.40;99.90;;;;;;5073082;28;20204;-69
2024/01/06 00:05:26;;;;;;;6.77;6.17;;;0.40;99.90;;;;;;5072164;28;20174;-73
2024/01/06 00:07:52;;;;;;;6.07;5.67;;;0.30;99.90;;;;;;5085034;28;20205;-71
2024/01/06 00:10:18;;;;;;;6.50;5.63;;;0.40;99.90;;;;;;5093189;28;20252;-68
2024/01/06 00:12:44;;;;;;;5.60;4.50;;;0.40;99.90;;;;;;5092464;28;20447;-69
2024/01/06 00:15:10;;;;;;;6.17;5.57;;;0.40;99.90;;;;;;5092094;28;20162;-74
2024/01/06 00:17:36;;;;;;;5.72;4.95;;;0.40;99.90;;;;;;5092935;28;20924;-74
2024/01/06 00:20:02;;;;;;;6.20;5.60;;;0.50;99.90;;;;;;5095944;28;20221;-70
2024/01/06 00:22:28;;;;;;;5.72;5.05;;;0.50;99.90;;;;;;5104278;28;20415;-74
2024/01/06 00:24:54;;;;;;;7.10;5.27;;;0.50;99.90;;;;;;5092101;28;20169;-75
2024/01/06 00:27:20;;;;;;;5.93;5.37;;;0.50;99.90;;;;;;5092926;28;20900;-73
2024/01/06 00:29:45;;;;;;;8.13;5.60;;;0.50;99.90;;;;;;5093055;28;20227;-69
2024/01/06 00:32:11;;;;;;;9.87;5.30;;;0.50;99.90;;;;;;5092605;28;20200;-74
2024/01/06 00:34:37;;;;;;;5.90;5.40;;;0.50;99.90;;;;;;5091114;28;20166;-74
2024/01/06 00:37:03;;;;;;;5.30;4.37;;;0.50;99.90;;;;;;5091394;28;20482;-74
2024/01/06 00:39:29;;;;;;;5.57;5.10;;;0.60;99.90;;;;;;5072582;28;20182;-69
2024/01/06 00:41:54;;;;;;;5.10;4.80;;;0.60;99.90;;;;;;5071379;28;20181;-74
2024/01/06 00:44:20;;;;;;;6.47;5.40;;;0.60;99.90;;;;;;5072721;28;20586;-74
2024/01/06 00:46:46;;;;;;;7.87;5.30;;;0.60;99.90;;;;;;5071618;28;20170;-74
2024/01/06 00:49:11;;;;;;;5.10;4.37;;;0.60;99.90;;;;;;5097558;28;20236;-73
2024/01/06 00:51:37;;;;;;;5.30;4.80;;;0.60;99.90;;;;;;5111344;28;20196;-73
2024/01/06 00:54:02;;;;;;;6.60;5.33;;;0.60;99.90;;;;;;5096019;28;20176;-71
2024/01/06 00:56:28;;;;;;;5.20;4.63;;;0.60;99.90;;;;;;5091688;28;20169;-69
2024/01/06 00:58:54;;;;;;;5.43;4.83;;;0.60;99.90;;;;;;5092556;28;20709;-69
2024/01/06 01:01:21;;;;;;;6.57;5.37;;;0.60;99.90;;;;;;5092614;28;20998;-69
2024/01/06 01:03:46;;;;;;;4.97;4.53;;;0.60;99.90;;;;;;5092698;28;20166;-76
2024/01/06 01:06:12;;;;;;;4.70;4.40;;;0.70;99.90;;;;;;5091700;28;20396;-69
2024/01/06 01:08:38;;;;;;;5.37;4.83;;;0.60;99.90;;;;;;5100543;28;20471;-69
2024/01/06 01:11:04;;;;;;;6.83;4.70;;;0.60;99.90;;;;;;5112874;28;20759;-74
2024/01/06 01:13:30;;;;;;;6.07;4.68;;;0.60;99.90;;;;;;5111593;28;20165;-68
2024/01/06 01:15:56;;;;;;;7.20;4.70;;;0.60;99.90;;;;;;5112046;28;20176;-74
2024/01/06 01:18:21;;;;;;;6.00;5.50;;;0.60;99.90;;;;;;5112794;28;20513;-72
2024/01/06 01:20:47;;;;;;;4.73;4.33;;;0.50;99.90;;;;;;5111300;28;20528;-75
2024/01/06 01:23:13;;;;;;;5.77;5.33;;;0.50;99.90;;;;;;5111628;28;20165;-69
2024/01/06 01:25:38;;;;;;;8.43;4.63;;;0.60;99.90;;;;;;5111360;28;20257;-69
2024/01/06 01:28:04;;;;;;;5.23;4.80;;;0.60;99.90;;;;;;5112765;28;20183;-74
2024/01/06 01:30:32;;;;;;;5.70;4.80;;;0.70;99.90;;;;;;5115711;28;20181;-73
2024/01/06 01:32:58;;;;;;;5.32;4.82;;;0.60;99.90;;;;;;5116312;28;20215;-71
2024/01/06 01:35:24;;;;;;;5.40;4.97;;;0.60;99.90;;;;;;5115405;28;20169;-70
2024/01/06 01:37:49;;;;;;;11.50;6.20;;;0.60;99.90;;;;;;5113896;28;20287;-70
2024/01/06 01:40:15;;;;;;;5.17;4.70;;;0.60;99.90;;;;;;5116321;28;20693;-73
2024/01/06 01:42:44;;;;;;;5.73;5.23;;;0.70;99.90;;;;;;5116192;28;20270;-70
2024/01/06 01:45:10;;;;;;;5.03;4.60;;;0.70;99.90;;;;;;5113461;28;20260;-74
2024/01/06 01:47:37;;;;;;;5.00;4.60;;;0.70;99.90;;;;;;5114976;28;20311;-73
2024/01/06 01:50:03;;;;;;;5.37;4.97;;;0.70;99.90;;;;;;5098813;28;20181;-71
2024/01/06 01:52:30;;;;;;;7.57;4.90;;;0.70;99.90;;;;;;5095643;28;20447;-69
2024/01/06 01:54:56;;;;;;;5.82;5.32;;;0.80;99.90;;;;;;5113240;28;20190;-74
2024/01/06 01:57:24;;;;;;;5.68;4.53;;;0.70;99.90;;;;;;5115574;28;20172;-70
2024/01/06 01:59:52;;;;;;;6.85;5.10;;;0.70;99.90;;;;;;5115987;28;20256;-74
2024/01/06 02:02:18;;;;;;;9.23;4.60;;;0.70;99.90;;;;;;5115268;28;20171;-69
2024/01/06 02:04:45;;;;;;;5.53;4.43;;;0.80;99.90;;;;;;5114964;28;20399;-68
2024/01/06 02:07:11;;;;;;;5.10;4.70;;;0.80;99.90;;;;;;5115773;28;20756;-71
2024/01/06 02:09:37;;;;;;;6.50;5.83;;;0.80;99.90;;;;;;5113296;28;20416;-68
2024/01/06 02:12:03;;;;;;;12.20;5.23;;;0.90;99.90;;;;;;5114324;28;20307;-70
2024/01/06 02:14:28;;;;;;;5.93;5.37;;;0.80;99.90;;;;;;5114477;28;20169;-75
2024/01/06 02:16:54;;;;;;;6.60;5.67;;;0.80;99.90;;;;;;5108451;28;20768;-68
2024/01/06 02:19:20;;;;;;;6.27;5.67;;;0.80;99.90;;;;;;5093985;28;20199;-73
2024/01/06 02:21:53;;;;;;;5.60;5.20;;;0.80;99.90;;;;;;5093564;28;20203;-69
2024/01/06 02:24:18;;;;;;;8.13;6.45;;;0.80;99.90;;;;;;5095295;28;20170;-74
2024/01/06 02:26:44;;;;;;;5.47;5.07;;;0.70;99.90;;;;;;5094104;28;20219;-74
2024/01/06 02:29:10;;;;;;;6.00;5.40;;;0.70;99.90;;;;;;5094904;28;20340;-69
2024/01/06 02:31:35;;;;;;;7.27;5.20;;;0.70;99.90;;;;;;5093278;28;20201;-69
2024/01/06 02:34:01;;;;;;;5.37;4.93;;;0.80;99.90;;;;;;5094768;28;20164;-69
2024/01/06 02:36:27;;;;;;;7.63;5.80;;;0.70;99.90;;;;;;5094039;28;20549;-68
2024/01/06 02:38:52;;;;;;;8.70;5.73;;;0.70;99.90;;;;;;5094777;28;20185;-68
2024/01/06 02:41:18;;;;;;;6.13;5.60;;;0.70;99.90;;;;;;5091737;28;20177;-75
2024/01/06 02:43:44;;;;;;;7.80;5.73;;;0.70;99.90;;;;;;5094638;28;20218;-74
2024/01/06 02:46:10;;;;;;;5.60;5.20;;;0.70;99.90;;;;;;5093667;28;20169;-70
2024/01/06 02:48:35;;;;;;;5.67;5.23;;;0.70;99.90;;;;;;5094550;28;20197;-70
2024/01/06 02:51:01;;;;;;;6.97;6.37;;;0.70;99.90;;;;;;5094506;28;20403;-75
2024/01/06 02:53:27;;;;;;;8.93;5.63;;;0.80;99.90;;;;;;5082280;28;20524;-69
2024/01/06 02:55:52;;;;;;;6.63;5.33;;;0.80;99.90;;;;;;5072954;28;20166;-75
2024/01/06 02:58:18;;;;;;;6.33;5.70;;;0.70;99.90;;;;;;5072516;28;20182;-71
2024/01/06 03:00:44;;;;;;;6.57;5.97;;;0.70;99.90;;;;;;5073028;28;20246;-68
2024/01/06 03:03:09;;;;;;;5.70;5.20;;;0.70;99.90;;;;;;5073061;28;20182;-69
2024/01/06 03:05:36;;;;;;;5.47;4.97;;;0.70;99.90;;;;;;5073042;28;20531;-76
2024/01/06 03:08:03;;;;;;;5.57;5.17;;;0.70;99.90;;;;;;5098746;28;20577;-68
2024/01/06 03:10:29;;;;;;;7.15;4.88;;;0.70;99.90;;;;;;5114619;28;20414;-68
2024/01/06 03:12:54;;;;;;;6.60;5.30;;;0.70;99.90;;;;;;5114409;28;20188;-72
2024/01/06 03:15:20;;;;;;;4.70;4.30;;;0.80;99.90;;;;;;5113216;28;20171;-69
2024/01/06 03:17:46;;;;;;;7.60;6.00;;;0.80;99.90;;;;;;5113842;28;20653;-69
2024/01/06 03:20:11;;;;;;;5.40;4.90;;;0.80;99.90;;;;;;5112950;28;20503;-68
2024/01/06 03:22:38;;;;;;;5.73;4.80;;;0.80;99.90;;;;;;5113116;28;20239;-70
2024/01/06 03:25:04;;;;;;;6.22;5.63;;;0.70;99.90;;;;;;5092892;28;20165;-70
2024/01/06 03:27:30;;;;;;;7.80;5.30;;;0.70;99.90;;;;;;5093578;28;20189;-69
2024/01/06 03:29:55;;;;;;;7.57;5.43;;;0.70;99.90;;;;;;5093305;28;20407;-75
2024/01/06 03:32:21;;;;;;;6.63;6.13;;;0.80;99.90;;;;;;5093387;28;20193;-75
2024/01/06 03:34:47;;;;;;;5.93;5.43;;;0.80;99.90;;;;;;5100961;28;20193;-75
2024/01/06 03:37:13;;;;;;;10.90;6.00;;;0.80;99.90;;;;;;5112967;28;20223;-70
2024/01/06 03:39:38;;;;;;;6.20;5.70;;;0.80;99.90;;;;;;5098142;28;20538;-75
2024/01/06 03:42:04;;;;;;;5.47;5.07;;;0.80;99.90;;;;;;5092434;28;20178;-71
2024/01/06 03:44:33;;;;;;;7.35;5.85;;;0.80;99.90;;;;;;5092038;28;20549;-76
2024/01/06 03:46:59;;;;;;;6.00;5.20;;;0.80;99.90;;;;;;5093518;28;20169;-75
2024/01/06 03:49:25;;;;;;;6.57;5.97;;;0.70;99.90;;;;;;5101618;28;20233;-69
2024/01/06 03:51:51;;;;;;;5.88;5.10;;;0.70;99.90;;;;;;5113478;28;20192;-74
2024/01/06 03:54:17;;;;;;;5.40;4.53;;;0.70;99.90;;;;;;5110839;28;20179;-69
2024/01/06 03:56:43;;;;;;;7.13;6.43;;;0.60;99.90;;;;;;5112778;28;20200;-76
2024/01/06 03:59:09;;;;;;;6.93;5.50;;;0.70;99.90;;;;;;5113609;28;20220;-70
2024/01/06 04:01:35;;;;;;;6.28;5.53;;;0.60;99.90;;;;;;5113611;28;20188;-72
2024/01/06 04:04:05;;;;;;;5.57;5.07;;;0.50;99.90;;;;;;5093598;28;20178;-69
2024/01/06 04:06:34;;;;;;;5.85;5.35;;;0.50;99.90;;;;;;5091067;28;20173;-70
2024/01/06 04:09:00;;;;;;;6.18;5.55;;;0.60;99.90;;;;;;5097694;28;20222;-73
2024/01/06 04:11:26;;;;;;;7.28;5.75;;;0.50;99.90;;;;;;5112700;28;20711;-68
2024/01/06 04:13:52;;;;;;;6.10;5.17;;;0.60;99.90;;;;;;5091517;28;20199;-74
2024/01/06 04:16:17;;;;;;;12.37;6.80;;;0.60;99.90;;;;;;5092201;28;20619;-76
2024/01/06 04:18:43;;;;;;;6.43;5.70;;;0.60;99.90;;;;;;5092907;28;20200;-70
2024/01/06 04:21:09;;;;;;;5.63;5.20;;;0.70;99.90;;;;;;5093130;28;20165;-68
2024/01/06 04:23:35;;;;;;;6.70;5.97;;;0.60;99.90;;;;;;5092655;28;20640;-74
2024/01/06 04:26:01;;;;;;;7.03;6.23;;;0.60;99.90;;;;;;5111794;28;20542;-75
2024/01/06 04:28:27;;;;;;;7.05;6.35;;;0.70;99.90;;;;;;5113304;28;20639;-73
2024/01/06 04:30:53;;;;;;;10.73;5.70;;;0.70;99.90;;;;;;5102842;28;20185;-68
2024/01/06 04:33:19;;;;;;;8.07;6.73;;;0.70;99.90;;;;;;5091541;28;20212;-69
2024/01/06 04:35:44;;;;;;;6.83;6.23;;;0.70;99.90;;;;;;5091186;28;20253;-75
2024/01/06 04:38:10;;;;;;;6.10;5.60;;;0.60;99.90;;;;;;5091802;28;20186;-69
2024/01/06 04:40:36;;;;;;;8.80;6.60;;;0.60;99.90;;;;;;5092038;28;20223;-74
2024/01/06 04:43:03;;;;;;;7.10;5.93;;;0.60;99.90;;;;;;5092920;28;20170;-75
2024/01/06 04:45:28;;;;;;;11.70;5.90;;;0.70;99.90;;;;;;5110820;28;20218;-75
2024/01/06 04:47:54;;;;;;;6.77;5.97;;;0.60;99.90;;;;;;5113148;28;20193;-75
2024/01/06 04:50:20;;;;;;;5.77;5.13;;;0.60;99.90;;;;;;5112585;28;20173;-70
2024/01/06 04:52:45;;;;;;;7.33;6.13;;;0.70;99.90;;;;;;5112982;28;20268;-75
2024/01/06 04:55:11;;;;;;;6.00;5.33;;;0.70;99.90;;;;;;5111046;28;20173;-69
2024/01/06 04:57:37;;;;;;;5.77;5.20;;;0.70;99.90;;;;;;5113026;28;20286;-69
2024/01/06 05:00:04;;;;;;;5.90;5.40;;;0.70;99.90;;;;;;5113076;28;20169;-75
2024/01/06 05:02:29;;;;;;;7.10;6.40;;;0.80;99.90;;;;;;5113038;28;20196;-75
2024/01/06 05:04:55;;;;;;;6.80;5.33;;;0.70;99.90;;;;;;5113093;28;20907;-75
2024/01/06 05:07:21;;;;;;;6.23;5.23;;;0.60;99.90;;;;;;5116790;28;20324;-70
2024/01/06 05:09:47;;;;;;;5.47;4.97;;;0.60;99.90;;;;;;5115008;28;20320;-69
2024/01/06 05:12:12;;;;;;;7.17;5.40;;;0.60;99.90;;;;;;5107986;28;20962;-68
2024/01/06 05:14:38;;;;;;;5.57;5.07;;;0.70;99.90;;;;;;5095403;28;20192;-69
2024/01/06 05:17:04;;;;;;;6.90;4.87;;;0.70;99.90;;;;;;5096394;28;20184;-74
2024/01/06 05:19:30;;;;;;;6.83;4.80;;;0.70;99.90;;;;;;5096328;28;20192;-72
2024/01/06 05:21:56;;;;;;;5.30;4.70;;;0.70;99.90;;;;;;5095225;28;20178;-75
2024/01/06 05:24:22;;;;;;;5.53;4.65;;;0.80;99.90;;;;;;5102452;28;21007;-74
2024/01/06 05:26:48;;;;;;;9.93;5.33;;;0.80;99.90;;;;;;5097827;28;20257;-76
2024/01/06 05:29:14;;;;;;;4.07;3.77;;;0.80;99.90;;;;;;5075723;28;20424;-74
2024/01/06 05:31:39;;;;;;;10.50;5.47;;;0.80;99.90;;;;;;5075686;28;20194;-71
2024/01/06 05:34:05;;;;;;;6.17;4.27;;;0.80;99.90;;;;;;5075808;28;20165;-70
2024/01/06 05:36:32;;;;;;;4.40;4.00;;;0.70;99.90;;;;;;5074962;28;20170;-73
2024/01/06 05:38:58;;;;;;;4.50;4.18;;;0.60;99.90;;;;;;5086612;28;20189;-69
2024/01/06 05:41:23;;;;;;;3.60;3.40;;;0.60;99.90;;;;;;5116296;28;20226;-74
2024/01/06 05:43:49;;;;;;;3.63;3.43;;;0.60;99.90;;;;;;5115337;28;20907;-71
2024/01/06 05:46:25;;;;;;;6.10;4.13;;;0.60;99.90;;;;;;5115132;28;20169;-74
2024/01/06 05:48:51;;;;;;;4.70;3.60;;;0.60;99.90;;;;;;5115710;28;20213;-69
2024/01/06 05:51:16;;;;;;;6.13;3.53;;;0.50;99.90;;;;;;5115907;28;20169;-71
2024/01/06 05:53:42;;;;;;;6.10;3.50;;;0.50;99.90;;;;;;5114930;28;20169;-75
2024/01/06 05:56:09;;;;;;;4.30;4.00;;;0.50;99.90;;;;;;5115228;28;20169;-68
2024/01/06 05:58:35;;;;;;;4.95;4.20;;;0.50;99.90;;;;;;5115880;28;20180;-74
2024/01/06 06:01:00;;;;;;;5.33;3.70;;;0.50;99.90;;;;;;5115937;28;20656;-70
2024/01/06 06:03:26;;;;;;;8.83;3.90;;;0.40;99.90;;;;;;5114804;28;20407;-72
2024/01/06 06:05:52;;;;;;;6.63;3.63;;;0.50;99.90;;;;;;5114384;28;20176;-72
2024/01/06 06:08:18;;;;;;;7.22;4.88;;;0.50;99.90;;;;;;5097044;28;20195;-75
2024/01/06 06:11:00;;;;;;;5.30;3.97;;;0.50;99.90;;;;;;5075084;28;20254;-70
2024/01/06 06:13:26;;;;;;;5.60;4.15;;;0.40;99.90;;;;;;5074986;28;20171;-75
2024/01/06 06:15:52;;;;;;;4.72;4.43;;;0.40;99.90;;;;;;5074081;28;20175;-75
2024/01/06 06:18:18;;;;;;;4.40;3.80;;;0.50;99.90;;;;;;5074914;28;20182;-68
2024/01/06 06:20:44;;;;;;;4.13;3.83;;;0.50;99.90;;;;;;5074842;28;20456;-69
2024/01/06 06:23:10;;;;;;;4.83;4.37;;;0.50;99.90;;;;;;5092016;28;20646;-73
2024/01/06 06:25:38;;;;;;;4.63;4.23;;;0.50;99.90;;;;;;5092267;28;20176;-69
2024/01/06 06:28:04;;;;;;;7.47;4.10;;;0.40;99.90;;;;;;5094954;28;20953;-71
2024/01/06 06:30:30;;;;;;;4.22;3.80;;;0.50;99.90;;;;;;5093907;28;20193;-69
2024/01/06 06:32:55;;;;;;;4.53;3.63;;;0.50;99.90;;;;;;5093641;28;20197;-74
2024/01/06 06:35:23;;;;;;;4.30;3.77;;;0.50;99.90;;;;;;5084979;28;20654;-75
2024/01/06 06:37:49;;;;;;;3.70;3.40;;;0.60;99.90;;;;;;5073404;28;20197;-71
2024/01/06 06:40:15;;;;;;;5.68;4.28;;;0.50;99.90;;;;;;5099398;28;20201;-69
2024/01/06 06:42:41;;;;;;;6.47;4.33;;;0.50;99.90;;;;;;5115099;28;20215;-73
2024/01/06 06:45:07;;;;;;;5.50;5.10;;;0.50;99.90;;;;;;5113240;28;20411;-75
2024/01/06 06:47:33;;;;;;;4.05;3.78;;;0.50;99.90;;;;;;5114736;28;20188;-73
2024/01/06 06:49:58;;;;;;;4.17;3.77;;;0.50;99.90;;;;;;5114052;28;20192;-68
2024/01/06 06:52:24;;;;;;;7.60;3.60;;;0.60;99.90;;;;;;5113800;28;20740;-75
2024/01/06 06:54:51;;;;;;;4.30;3.90;;;0.50;99.90;;;;;;5106735;28;20180;-75
2024/01/06 06:57:17;;;;;;;4.90;3.85;;;0.50;99.90;;;;;;5094042;28;20284;-75
2024/01/06 06:59:43;;;;;;;4.03;3.60;;;0.40;99.90;;;;;;5094104;28;20621;-75
2024/01/06 07:02:09;;;;;;;6.80;3.90;;;0.40;99.90;;;;;;5094299;28;20169;-71
2024/01/06 07:04:35;;;;;;;5.47;3.33;;;0.40;99.90;;;;;;5074535;28;20162;-70
2024/01/06 07:07:00;;;;;;;3.60;3.30;;;0.50;99.90;;;;;;5072834;28;20657;-73
2024/01/06 07:09:26;;;;;;;3.50;3.30;;;0.50;99.90;;;;;;5076459;28;20186;-71
2024/01/06 07:11:52;;;;;;;3.20;3.00;;;0.60;99.90;;;;;;5104084;28;20584;-74
2024/01/06 07:14:17;;;;;;;3.67;2.90;;;0.50;99.90;;;;;;5114204;28;20234;-75
2024/01/06 07:16:43;;;;;;;3.60;3.40;;;0.50;99.90;;;;;;5111926;28;20553;-72
2024/01/06 07:19:09;;;;;;;3.70;3.40;;;0.50;99.90;;;;;;5114331;28;20706;-71
2024/01/06 07:21:34;;;;;;;5.60;3.50;;;0.50;99.90;;;;;;5114051;28;20158;-69
2024/01/06 07:24:01;;;;;;;3.97;3.60;;;0.50;99.90;;;;;;5113114;28;20172;-73
2024/01/06 07:26:27;;;;;;;4.00;2.63;;;0.50;99.90;;;;;;5091352;28;20177;-72
2024/01/06 07:28:53;;;;;;;6.10;3.20;;;0.50;99.90;;;;;;5093551;28;20185;-70
2024/01/06 07:31:18;;;;;;;3.10;2.90;;;0.50;99.90;;;;;;5093621;28;20650;-70
2024/01/06 07:33:44;;;;;;;3.60;3.30;;;0.50;99.90;;;;;;5093630;28;20172;-76
2024/01/06 07:36:10;;;;;;;8.23;4.77;;;0.60;99.90;;;;;;5110855;28;20674;-75
2024/01/06 07:38:36;;;;;;;7.25;4.40;;;0.60;99.90;;;;;;5112810;28;20181;-71
2024/01/06 07:41:04;;;;;;;7.40;4.00;;;0.60;99.90;;;;;;5114086;28;20188;-70
2024/01/06 07:43:30;;;;;;;4.03;3.70;;;0.60;99.90;;;;;;5113991;28;20399;-70
2024/01/06 07:45:56;;;;;;;5.32;4.35;;;0.60;99.90;;;;;;5112846;28;20169;-73
2024/01/06 07:48:22;;;;;;;6.30;4.03;;;0.60;99.90;;;;;;5113749;28;20241;-70
2024/01/06 07:50:47;;;;;;;5.30;3.23;;;0.70;99.90;;;;;;5113849;28;20398;-72
2024/01/06 07:53:16;;;;;;;6.30;4.40;;;0.70;99.90;;;;;;5112714;28;20253;-71
2024/01/06 07:55:42;;;;;;;12.25;7.70;;;0.70;99.90;;;;;;5112398;28;20175;-75
2024/01/06 07:58:08;;;;;;;7.60;3.83;;;0.70;99.90;;;;;;5112521;28;20280;-73
2024/01/06 08:00:34;;;;;;;3.90;3.60;;;0.70;99.90;;;;;;5112543;28;20952;-76
2024/01/06 08:03:00;;;;;;;3.90;3.40;;;0.80;99.90;;;;;;5113699;28;20205;-68
2024/01/06 08:05:25;;;;;;;9.40;6.70;;;0.80;99.90;;;;;;5093551;28;20223;-70
2024/01/06 08:07:52;;;;;;;4.60;4.20;;;0.80;99.90;;;;;;5088678;28;20198;-72
2024/01/06 08:10:17;;;;;;;5.63;4.97;;;0.80;99.90;;;;;;5093051;28;20642;-74
2024/01/06 08:12:43;;;;;;;5.80;4.57;;;0.90;99.90;;;;;;5092461;28;20197;-70
2024/01/06 08:15:09;;;;;;;3.43;2.93;;;0.90;99.90;;;;;;5092278;28;20252;-70
2024/01/06 08:17:36;;;;;;;7.03;6.13;;;0.80;98.50;;;;;;5092986;28;20792;-73
2024/01/06 08:20:03;;;;;;;4.80;4.40;;;0.70;94.90;;;;;;5092984;28;20399;-70
2024/01/06 08:22:29;;;;;;;3.65;3.30;;;0.70;95.60;;;;;;5107081;28;20185;-69
2024/01/06 08:24:54;;;;;;;3.10;3.00;;;0.60;94.40;;;;;;5112505;28;20511;-73
2024/01/06 08:27:21;;;;;;;6.10;4.13;;;0.60;94.50;;;;;;5111941;28;20579;-74
2024/01/06 08:29:47;;;;;;;6.82;3.70;;;0.60;95.40;;;;;;5113112;28;20164;-74
2024/01/06 08:32:14;;;;;;;3.83;3.30;;;0.60;96.60;;;;;;5109976;28;20209;-75
2024/01/06 08:34:40;;;;;;;4.85;2.70;;;0.60;97.00;;;;;;5091988;28;20265;-72
2024/01/06 08:37:06;;;;;;;6.40;3.80;;;0.60;95.80;;;;;;5100593;28;20194;-74
2024/01/06 08:39:32;;;;;;;7.43;4.10;;;0.60;98.30;;;;;;5113531;28;20164;-68
2024/01/06 08:41:57;;;;;;;5.43;3.90;;;0.60;98.10;;;;;;5116171;28;20263;-74
2024/01/06 08:44:23;;;;;;;3.60;3.30;;;0.60;97.70;;;;;;5117161;28;20176;-77
2024/01/06 08:46:49;;;;;;;4.00;3.47;;;0.60;99.90;;;;;;5116623;28;20177;-76
2024/01/06 08:49:15;;;;;;;5.70;4.20;;;0.60;99.90;;;;;;5117311;28;20645;-75
2024/01/06 08:51:41;;;;;;;9.90;3.10;;;0.70;99.90;;;;;;5107044;28;20196;-73
2024/01/06 08:54:06;;;;;;;4.03;3.63;;;0.70;99.90;;;;;;5096833;28;20240;-76
2024/01/06 08:56:33;;;;;;;4.70;3.17;;;0.80;99.90;;;;;;5095574;28;20192;-75
2024/01/06 08:58:59;;;;;;;8.63;4.43;;;0.80;99.90;;;;;;5096633;28;20189;-76
2024/01/06 09:01:25;;;;;;;3.10;2.90;;;0.90;99.90;;;;;;5096351;28;20409;-70
2024/01/06 09:03:50;;;;;;;3.30;3.00;;;0.80;99.90;;;;;;5096742;28;20166;-73
2024/01/06 09:06:16;;;;;;;3.67;3.37;;;0.80;99.90;;;;;;5096296;28;20166;-70
2024/01/06 09:08:42;;;;;;;9.33;3.93;;;0.80;99.90;;;;;;5095838;28;20185;-75
2024/01/06 09:11:08;;;;;;;3.57;3.20;;;0.90;99.90;;;;;;5096620;28;20246;-70
2024/01/06 09:13:33;;;;;;;3.97;3.57;;;0.90;98.40;;;;;;5095331;28;20183;-70
2024/01/06 09:16:00;;;;;;;4.83;2.77;;;0.90;96.50;;;;;;5095488;28;20207;-72
2024/01/06 09:18:27;;;;;;;3.20;3.00;;;0.90;92.70;;;;;;5096354;28;20180;-75
2024/01/06 09:20:52;;;;;;;5.22;2.70;;;0.90;89.50;;;;;;5095754;28;20254;-69
2024/01/06 09:23:19;;;;;;;3.50;3.20;;;0.80;85.20;;;;;;5096266;28;20201;-70
2024/01/06 09:25:45;;;;;;;6.35;4.47;;;0.90;86.40;;;;;;5093859;28;20414;-74
2024/01/06 09:28:10;;;;;;;4.70;3.80;;;0.90;79.80;;;;;;5094412;28;20553;-73
2024/01/06 09:30:37;;;;;;;4.30;3.90;;;0.80;74.20;;;;;;5075707;28;20182;-76
2024/01/06 09:33:03;;;;;;;8.23;4.65;;;0.80;74.30;;;;;;5075793;28;20606;-71
2024/01/06 09:35:28;;;;;;;5.72;4.50;;;0.70;77.10;;;;;;5074912;28;20216;-75
2024/01/06 09:37:55;;;;;;;6.63;4.47;;;0.80;88.50;;;;;;5093638;28;20650;-75
2024/01/06 09:40:23;;;;;;;5.03;3.72;;;0.80;90.30;;;;;;5096028;28;20184;-70
2024/01/06 09:42:49;;;;;;;4.53;3.90;;;0.80;91.90;;;;;;5095756;28;20201;-75
2024/01/06 09:45:15;;;;;;;4.20;3.72;;;0.80;92.30;;;;;;5094457;28;20396;-75
2024/01/06 09:47:41;;;;;;;4.60;3.80;;;0.90;95.40;;;;;;5095616;28;20588;-76
2024/01/06 09:50:09;;;;;;;5.70;5.30;;;1.00;95.80;;;;;;5093903;28;20169;-72
2024/01/06 09:52:42;;;;;;;8.30;6.53;;;0.90;96.00;;;;;;5096223;28;20801;-71
2024/01/06 09:55:11;;;;;;;5.20;4.70;;;1.00;96.20;;;;;;5094745;28;20760;-71
2024/01/06 09:57:37;;;;;;;3.80;3.60;;;1.10;98.20;;;;;;5095272;28;20434;-73
2024/01/06 10:00:04;;;;;;;4.47;4.00;;;1.10;95.50;;;;;;5095775;28;20722;-75
2024/01/06 10:02:31;;;;;;;9.85;6.57;;;0.90;90.50;;;;;;5095648;28;20426;-70
2024/01/06 10:04:58;;;;;;;5.45;4.95;;;0.90;90.90;;;;;;5093969;28;20173;-72
2024/01/06 10:07:25;;;;;;;5.32;4.25;;;0.90;91.50;;;;;;5095913;28;20192;-75
2024/01/06 10:09:54;;;;;;;3.77;3.50;;;0.90;91.00;;;;;;5094373;28;20323;-75
2024/01/06 10:12:25;;;;;;;4.43;3.58;;;0.90;91.20;;;;;;5093953;28;20992;-70
2024/01/06 10:14:51;;;;;;;4.20;3.90;;;0.90;93.60;;;;;;5094397;28;20179;-73
2024/01/06 10:17:18;;;;;;;4.10;3.70;;;1.00;95.90;;;;;;5094042;28;20411;-76
2024/01/06 10:19:45;;;;;;;4.30;3.90;;;1.00;94.10;;;;;;5095365;28;20809;-71
2024/01/06 10:22:11;;;;;;;6.60;6.00;;;1.10;93.40;;;;;;5095128;28;20407;-74
2024/01/06 10:24:40;;;;;;;3.80;3.60;;;1.00;87.90;;;;;;5092629;28;20935;-74
2024/01/06 10:27:06;;;;;;;4.35;3.45;;;1.00;86.20;;;;;;5095017;28;20166;-71
2024/01/06 10:29:32;;;;;;;4.70;4.30;;;0.90;82.80;;;;;;5094916;28;20697;-71
2024/01/06 10:31:58;;;;;;;5.00;4.47;;;0.90;83.20;;;;;;5094770;28;21013;-75
2024/01/06 10:34:24;;;;;;;4.47;4.17;;;1.00;88.00;;;;;;5094848;28;20258;-74
2024/01/06 10:36:54;;;;;;;4.97;4.13;;;1.00;87.00;;;;;;5094526;28;20979;-71
2024/01/06 10:39:21;;;;;;;4.35;4.00;;;0.90;85.90;;;;;;5094620;28;20416;-76
2024/01/06 10:41:49;;;;;;;8.25;3.28;;;1.00;87.20;;;;;;5093995;28;20201;-72
2024/01/06 10:44:15;;;;;;;6.07;4.18;;;1.00;89.10;;;;;;5094677;28;20166;-73
2024/01/06 10:46:42;;;;;;;4.50;3.90;;;1.00;86.60;;;;;;5093759;28;20177;-71
2024/01/06 10:49:11;;;;;;;3.70;3.50;;;1.00;84.50;;;;;;5094612;28;20518;-75
2024/01/06 10:51:38;;;;;;;4.47;3.55;;;1.00;75.90;;;;;;5094889;28;20491;-73
2024/01/06 10:54:05;;;;;;;3.90;3.60;;;1.00;75.40;;;;;;5094553;28;20170;-71
2024/01/06 10:56:36;;;;;;;5.60;4.03;;;1.00;74.40;;;;;;5093630;28;20423;-71
2024/01/06 10:59:03;;;;;;;10.02;4.13;;;1.00;74.40;;;;;;5094037;28;20419;-73
2024/01/06 11:01:29;;;;;;;4.80;3.70;;;1.00;74.50;;;;;;5093290;28;20177;-71
2024/01/06 11:03:55;;;;;;;3.67;3.37;;;1.00;74.40;;;;;;5094154;28;20780;-74
2024/01/06 11:06:22;;;;;;;3.43;3.13;;;1.00;74.40;;;;;;5106105;28;20439;-76
2024/01/06 11:09:11;;;;;;;5.68;3.97;;;1.00;74.40;;;;;;5113440;28;20205;-71
2024/01/06 11:11:37;;;;;;;7.20;4.10;;;0.80;74.20;;;;;;5114409;28;20235;-72
2024/01/06 11:14:27;;;;;;;6.32;4.18;;;0.80;74.20;;;;;;5114541;28;20164;-76
2024/01/06 11:16:54;;;;;;;4.43;2.80;;;0.80;74.20;;;;;;5113728;28;20173;-76
2024/01/06 11:19:44;;;;;;;4.00;3.70;;;0.80;74.30;;;;;;5101014;28;20186;-71
2024/01/06 11:22:31;;;;;;;3.60;3.30;;;0.80;74.30;;;;;;5067674;28;20268;-71
2024/01/06 11:25:05;;;;;;;4.73;3.83;;;0.90;81.30;;;;;;5072777;28;20520;-76
2024/01/06 11:27:31;;;;;;;4.13;3.17;;;0.90;84.60;;;;;;5073494;28;20420;-74
2024/01/06 11:30:05;;;;;;;5.73;5.10;;;0.90;81.90;;;;;;5072424;28;20424;-72
2024/01/06 11:32:38;;;;;;;4.47;3.40;;;0.90;87.40;;;;;;5072422;28;20478;-72
2024/01/06 11:35:11;;;;;;;3.87;3.57;;;0.90;90.70;;;;;;5109648;28;20422;-77
2024/01/06 11:37:40;;;;;;;3.80;3.50;;;1.00;91.70;;;;;;5091382;28;20795;-76
2024/01/06 11:40:21;;;;;;;6.57;4.50;;;1.10;90.60;;;;;;5093533;28;20487;-71
2024/01/06 11:43:08;;;;;;;4.90;3.37;;;1.10;87.90;;;;;;5093594;28;20404;-77
2024/01/06 11:45:38;;;;;;;3.43;3.13;;;1.10;78.50;;;;;;5091157;28;20435;-72
2024/01/06 11:48:06;;;;;;;4.23;3.83;;;1.00;74.40;;;;;;5092804;28;20443;-76
2024/01/06 11:50:35;;;;;;;3.60;3.03;;;0.90;69.30;;;;;;5091877;28;20499;-77
2024/01/06 11:53:02;;;;;;;7.18;4.13;;;0.90;60.70;;;;;;5093501;28;20280;-72
2024/01/06 11:55:28;;;;;;;4.17;3.77;;;0.90;60.20;;;;;;5092516;28;20172;-72
2024/01/06 11:57:56;;;;;;;3.58;3.38;;;1.00;63.10;;;;;;5093216;28;20429;-73
2024/01/06 12:00:22;;;;;;;6.30;3.92;;;0.90;48.90;;;;;;5093427;28;20196;-76
2024/01/06 12:02:47;;;;;;;3.83;3.43;;;0.90;43.20;;;;;;5093368;28;20662;-72
2024/01/06 12:05:18;;;;;;;5.83;4.03;;;0.90;39.60;;;;;;5092452;28;20434;-72
2024/01/06 12:07:53;;;;;;;4.00;3.70;;;1.10;41.40;;;;;;5109502;28;20197;-77
2024/01/06 12:10:21;;;;;;;3.23;3.03;;;1.00;25.50;;;;;;5113589;28;20503;-76
2024/01/06 12:13:04;;;;;;;5.63;4.33;;;1.10;25.60;;;;;;5113188;28;20525;-77
2024/01/06 12:15:34;;;;;;;8.00;4.17;;;1.10;24.00;;;;;;5112378;28;20879;-72
2024/01/06 12:18:03;;;;;;;3.93;3.63;;;1.10;10.30;;;;;;5112993;28;20430;-76
2024/01/06 12:20:29;;;;;;;4.10;3.70;;;1.10;1.00;;;;;;5110876;28;21115;-69
2024/01/06 12:22:55;;;;;;;7.80;5.07;;;1.00;1.00;;;;;;5071479;28;20458;-73
2024/01/06 12:25:25;;;;;;;5.00;4.03;;;1.10;1.00;;;;;;5084618;28;20523;-76
2024/01/06 12:27:52;;;;;;;3.97;3.67;;;1.10;1.00;;;;;;5092993;28;20415;-72
2024/01/06 12:30:19;;;;;;;5.67;4.40;;;1.10;1.00;;;;;;5092855;28;20427;-73
2024/01/06 12:32:50;;;;;;;5.30;3.50;;;1.20;1.00;;;;;;5092832;28;20455;-71
2024/01/06 12:35:16;;;;;;;3.50;3.20;;;1.10;1.00;;;;;;5091647;28;20398;-76
2024/01/06 12:37:44;;;;;;;3.00;2.80;;;1.20;1.00;;;;;;5112912;28;20450;-76
2024/01/06 12:40:14;;;;;;;4.27;3.97;;;1.10;1.00;;;;;;5111922;28;20407;-71
2024/01/06 12:42:40;;;;;;;6.77;4.37;;;1.20;1.00;;;;;;5113231;28;20759;-71
2024/01/06 12:45:07;;;;;;;3.53;3.20;;;1.20;1.00;;;;;;5112453;28;20549;-75
2024/01/06 12:47:33;;;;;;;4.17;3.33;;;1.30;1.00;;;;;;5113122;28;20941;-71
2024/01/06 12:49:59;;;;;;;3.87;3.57;;;1.20;1.00;;;;;;5111924;28;20410;-72
2024/01/06 12:52:25;;;;;;;4.83;4.40;;;1.30;1.00;;;;;;5111835;28;20446;-77
2024/01/06 12:54:52;;;;;;;4.37;4.10;;;1.30;1.00;;;;;;5111608;28;20161;-76